createdAt,value
2023-05-19T00:00:17.311Z,247.86
2023-05-19T00:01:17.327Z,247.59
2023-05-19T00:02:17.375Z,248.02
2023-05-19T00:03:17.522Z,246.93
2023-05-19T00:04:17.387Z,248.02
2023-05-19T00:05:17.436Z,248.88
2023-05-19T00:06:17.465Z,248.10
2023-05-19T00:07:17.488Z,247.91
2023-05-19T00:08:17.455Z,247.30
2023-05-19T00:09:17.525Z,247.10
2023-05-19T00:10:17.525Z,247.15
2023-05-19T00:11:17.558Z,246.79
2023-05-19T00:12:17.597Z,248.24
2023-05-19T00:13:17.617Z,248.27
2023-05-19T00:14:17.616Z,247.12
2023-05-19T00:15:18.610Z,249.75
2023-05-19T00:16:17.798Z,247.54
2023-05-19T00:17:17.691Z,247.59
2023-05-19T00:18:17.714Z,248.27
2023-05-19T00:19:17.837Z,246.39
2023-05-19T00:20:17.758Z,247.30
2023-05-19T00:21:17.818Z,247.13
2023-05-19T00:22:17.897Z,247.66
2023-05-19T00:23:17.865Z,247.63
2023-05-19T00:24:17.873Z,247.88
2023-05-19T00:25:17.908Z,248.66
2023-05-19T00:26:17.906Z,248.72
2023-05-19T00:27:17.953Z,248.47
2023-05-19T00:28:18.003Z,247.24
2023-05-19T00:29:18.032Z,249.43
2023-05-19T00:30:18.060Z,248.31
2023-05-19T00:31:18.132Z,247.45
2023-05-19T00:32:18.171Z,248.42
2023-05-19T00:33:18.124Z,249.32
2023-05-19T00:34:18.142Z,248.89
2023-05-19T00:35:18.167Z,247.76
2023-05-19T00:36:18.636Z,248.68
2023-05-19T00:37:18.228Z,247.95
2023-05-19T00:38:18.241Z,248.38
2023-05-19T00:39:18.240Z,248.94
2023-05-19T00:40:18.262Z,249.38
2023-05-19T00:41:18.304Z,249.15
2023-05-19T00:42:18.341Z,247.42
2023-05-19T00:43:18.380Z,247.67
2023-05-19T00:44:18.389Z,248.95
2023-05-19T00:45:18.386Z,246.81
2023-05-19T00:46:18.445Z,248.68
2023-05-19T00:47:18.459Z,249.06
2023-05-19T00:48:18.454Z,248.94
2023-05-19T00:49:18.482Z,250.00
2023-05-19T00:50:18.526Z,247.27
2023-05-19T00:51:18.541Z,249.71
2023-05-19T00:52:18.612Z,248.93
2023-05-19T00:53:18.659Z,249.68
2023-05-19T00:54:18.607Z,248.60
2023-05-19T00:55:18.630Z,248.51
2023-05-19T00:56:18.669Z,249.46
2023-05-19T00:57:18.680Z,248.25
2023-05-19T00:58:18.708Z,248.21
2023-05-19T00:59:18.719Z,249.49
2023-05-19T01:00:18.760Z,248.42
2023-05-19T01:01:18.824Z,247.94
2023-05-19T01:02:18.821Z,249.52
2023-05-19T01:03:18.881Z,248.73
2023-05-19T01:04:18.862Z,248.77
2023-05-19T01:05:18.880Z,247.83
2023-05-19T01:06:18.938Z,247.34
2023-05-19T01:07:18.952Z,247.67
2023-05-19T01:08:18.962Z,247.20
2023-05-19T01:09:18.957Z,247.55
2023-05-19T01:10:19.029Z,249.33
2023-05-19T01:11:19.034Z,247.70
2023-05-19T01:12:19.095Z,248.95
2023-05-19T01:13:19.105Z,248.64
2023-05-19T01:14:19.158Z,248.98
2023-05-19T01:15:19.204Z,248.98
2023-05-19T01:16:19.177Z,248.03
2023-05-19T01:17:19.183Z,248.64
2023-05-19T01:18:19.232Z,249.08
2023-05-19T01:19:19.367Z,248.81
2023-05-19T01:20:19.249Z,249.29
2023-05-19T01:21:19.248Z,249.66
2023-05-19T01:22:19.264Z,249.95
2023-05-19T01:23:19.304Z,248.09
2023-05-19T01:24:19.306Z,248.95
2023-05-19T01:25:19.338Z,248.88
2023-05-19T01:26:19.358Z,247.22
2023-05-19T01:27:19.398Z,247.42
2023-05-19T01:28:19.462Z,247.15
2023-05-19T01:29:19.454Z,246.70
2023-05-19T01:30:19.472Z,245.44
2023-05-19T01:31:19.525Z,246.77
2023-05-19T01:32:19.535Z,247.59
2023-05-19T01:33:19.588Z,247.79
2023-05-19T01:34:19.590Z,247.52
2023-05-19T01:35:19.611Z,246.94
2023-05-19T01:36:19.672Z,247.25
2023-05-19T01:37:19.672Z,247.34
2023-05-19T01:38:19.729Z,246.92
2023-05-19T01:39:19.736Z,246.18
2023-05-19T01:40:19.775Z,245.53
2023-05-19T01:41:19.804Z,245.95
2023-05-19T01:42:19.823Z,246.17
2023-05-19T01:43:19.839Z,246.42
2023-05-19T01:44:19.932Z,246.35
2023-05-19T01:45:19.905Z,246.49
2023-05-19T01:46:20.058Z,246.37
2023-05-19T01:47:19.942Z,245.54
2023-05-19T01:48:19.988Z,246.48
2023-05-19T01:49:20.025Z,245.49
2023-05-19T01:50:20.085Z,246.52
2023-05-19T01:51:20.089Z,246.33
2023-05-19T01:52:20.123Z,247.27
2023-05-19T01:53:20.144Z,246.84
2023-05-19T01:54:20.211Z,246.64
2023-05-19T01:55:20.200Z,247.33
2023-05-19T01:56:20.246Z,246.65
2023-05-19T01:57:20.267Z,247.35
2023-05-19T01:58:20.346Z,248.40
2023-05-19T01:59:20.340Z,247.60
2023-05-19T02:00:21.358Z,247.81
2023-05-19T02:01:20.452Z,247.48
2023-05-19T02:02:20.483Z,247.82
2023-05-19T02:03:20.465Z,248.76
2023-05-19T02:04:20.579Z,247.51
2023-05-19T02:05:20.545Z,247.97
2023-05-19T02:06:20.560Z,247.71
2023-05-19T02:07:20.599Z,248.45
2023-05-19T02:08:20.630Z,247.03
2023-05-19T02:09:20.670Z,250.00
2023-05-19T02:10:20.725Z,248.08
2023-05-19T02:11:20.771Z,247.37
2023-05-19T02:12:20.819Z,248.60
2023-05-19T02:13:20.877Z,249.43
2023-05-19T02:14:20.885Z,246.86
2023-05-19T02:15:20.925Z,248.48
2023-05-19T02:16:21.137Z,248.52
2023-05-19T02:17:21.000Z,247.79
2023-05-19T02:18:21.028Z,247.78
2023-05-19T02:19:21.074Z,247.27
2023-05-19T02:20:21.059Z,248.74
2023-05-19T02:21:21.063Z,247.42
2023-05-19T02:22:21.124Z,247.72
2023-05-19T02:23:21.138Z,247.81
2023-05-19T02:24:21.207Z,248.59
2023-05-19T02:25:21.236Z,248.26
2023-05-19T02:26:21.687Z,248.80
2023-05-19T02:27:21.311Z,248.90
2023-05-19T02:28:21.355Z,247.05
2023-05-19T02:29:21.370Z,248.49
2023-05-19T02:30:21.372Z,248.43
2023-05-19T02:31:21.420Z,248.24
2023-05-19T02:32:21.489Z,248.32
2023-05-19T02:33:22.158Z,249.82
2023-05-19T02:34:21.527Z,247.23
2023-05-19T02:35:21.563Z,247.76
2023-05-19T02:36:21.621Z,247.14
2023-05-19T02:37:21.628Z,249.45
2023-05-19T02:38:21.658Z,248.59
2023-05-19T02:39:21.701Z,248.54
2023-05-19T02:40:21.756Z,248.60
2023-05-19T02:41:21.765Z,248.09
2023-05-19T02:42:21.816Z,247.64
2023-05-19T02:43:21.811Z,248.88
2023-05-19T02:44:21.873Z,250.00
2023-05-19T02:45:21.918Z,249.95
2023-05-19T02:46:22.263Z,248.40
2023-05-19T02:47:22.083Z,248.50
2023-05-19T02:48:22.017Z,247.84
2023-05-19T02:49:22.078Z,247.90
2023-05-19T02:50:22.049Z,248.94
2023-05-19T02:51:22.178Z,249.79
2023-05-19T02:52:22.139Z,248.50
2023-05-19T02:53:22.268Z,247.36
2023-05-19T02:54:22.263Z,246.77
2023-05-19T02:55:22.281Z,248.75
2023-05-19T02:56:22.308Z,248.18
2023-05-19T02:57:22.354Z,247.95
2023-05-19T02:58:22.386Z,247.66
2023-05-19T02:59:23.785Z,248.48
2023-05-19T03:00:22.462Z,248.38
2023-05-19T03:01:22.452Z,247.24
2023-05-19T03:02:22.417Z,247.62
2023-05-19T03:03:22.456Z,248.26
2023-05-19T03:04:22.419Z,247.74
2023-05-19T03:05:22.439Z,247.82
2023-05-19T03:06:22.390Z,247.96
2023-05-19T03:07:22.475Z,248.95
2023-05-19T03:08:22.397Z,250.07
2023-05-19T03:09:22.364Z,247.25
2023-05-19T03:10:22.371Z,248.67
2023-05-19T03:11:22.355Z,249.75
2023-05-19T03:12:22.352Z,246.34
2023-05-19T03:13:22.330Z,248.29
2023-05-19T03:14:22.322Z,249.74
2023-05-19T03:15:22.327Z,246.47
2023-05-19T03:16:22.382Z,247.64
2023-05-19T03:17:22.417Z,248.55
2023-05-19T03:18:22.367Z,246.75
2023-05-19T03:19:22.359Z,248.42
2023-05-19T03:20:22.289Z,246.99
2023-05-19T03:21:22.291Z,246.85
2023-05-19T03:22:22.291Z,248.07
2023-05-19T03:23:22.293Z,245.25
2023-05-19T03:24:22.275Z,247.81
2023-05-19T03:25:23.139Z,247.42
2023-05-19T03:26:22.281Z,245.75
2023-05-19T03:27:22.220Z,248.25
2023-05-19T03:28:22.229Z,247.51
2023-05-19T03:29:22.223Z,249.43
2023-05-19T03:30:22.264Z,248.12
2023-05-19T03:31:22.253Z,247.78
2023-05-19T03:32:22.245Z,249.37
2023-05-19T03:33:22.274Z,247.56
2023-05-19T03:34:22.173Z,249.41
2023-05-19T03:35:22.181Z,249.65
2023-05-19T03:36:22.207Z,248.29
2023-05-19T03:37:22.168Z,248.90
2023-05-19T03:38:22.198Z,247.23
2023-05-19T03:39:22.180Z,248.21
2023-05-19T03:40:22.151Z,247.71
2023-05-19T03:41:22.167Z,245.78
2023-05-19T03:42:22.130Z,247.17
2023-05-19T03:43:22.143Z,245.63
2023-05-19T03:44:22.108Z,246.73
2023-05-19T03:45:22.119Z,247.20
2023-05-19T03:46:22.199Z,250.00
2023-05-19T03:47:22.105Z,248.16
2023-05-19T03:48:22.104Z,247.46
2023-05-19T03:49:22.079Z,248.20
2023-05-19T03:50:22.101Z,246.33
2023-05-19T03:51:22.102Z,247.83
2023-05-19T03:52:22.050Z,248.18
2023-05-19T03:53:22.064Z,249.98
2023-05-19T03:54:22.146Z,248.36
2023-05-19T03:55:22.152Z,247.80
2023-05-19T03:56:22.211Z,247.28
2023-05-19T03:57:22.237Z,248.23
2023-05-19T03:58:22.288Z,247.84
2023-05-19T03:59:22.318Z,248.06
2023-05-19T04:00:22.347Z,247.64
2023-05-19T04:01:22.424Z,248.69
2023-05-19T04:02:22.527Z,249.56
2023-05-19T04:03:22.656Z,250.00
2023-05-19T04:04:22.563Z,249.73
2023-05-19T04:05:22.567Z,248.48
2023-05-19T04:06:22.708Z,249.91
2023-05-19T04:07:22.654Z,247.72
2023-05-19T04:08:22.679Z,248.80
2023-05-19T04:09:22.735Z,247.52
2023-05-19T04:10:22.771Z,247.92
2023-05-19T04:11:22.807Z,248.13
2023-05-19T04:12:22.859Z,247.21
2023-05-19T04:13:22.869Z,246.43
2023-05-19T04:14:22.931Z,248.84
2023-05-19T04:15:22.948Z,247.27
2023-05-19T04:16:23.394Z,249.41
2023-05-19T04:17:23.051Z,247.33
2023-05-19T04:18:23.093Z,248.73
2023-05-19T04:19:23.161Z,246.67
2023-05-19T04:20:23.177Z,248.02
2023-05-19T04:21:23.180Z,248.45
2023-05-19T04:22:23.191Z,247.51
2023-05-19T04:23:23.282Z,248.99
2023-05-19T04:24:23.298Z,249.68
2023-05-19T04:25:23.327Z,247.84
2023-05-19T04:26:23.364Z,247.89
2023-05-19T04:27:23.405Z,248.30
2023-05-19T04:28:23.461Z,246.60
2023-05-19T04:29:23.577Z,247.70
2023-05-19T04:30:23.519Z,245.77
2023-05-19T04:31:23.640Z,246.86
2023-05-19T04:32:23.619Z,247.52
2023-05-19T04:33:23.604Z,246.79
2023-05-19T04:34:23.685Z,247.40
2023-05-19T04:35:23.731Z,246.19
2023-05-19T04:36:23.834Z,245.50
2023-05-19T04:37:23.783Z,246.45
2023-05-19T04:38:23.805Z,247.00
2023-05-19T04:39:23.842Z,246.97
2023-05-19T04:40:23.941Z,248.42
2023-05-19T04:41:23.953Z,246.81
2023-05-19T04:42:23.983Z,246.94
2023-05-19T04:43:23.980Z,245.95
2023-05-19T04:44:24.028Z,246.57
2023-05-19T04:45:24.073Z,248.48
2023-05-19T04:46:24.162Z,246.69
2023-05-19T04:47:24.118Z,247.31
2023-05-19T04:48:24.185Z,246.86
2023-05-19T04:49:24.255Z,248.60
2023-05-19T04:50:24.259Z,247.62
2023-05-19T04:51:24.285Z,247.04
2023-05-19T04:52:24.287Z,247.07
2023-05-19T04:53:24.337Z,248.00
2023-05-19T04:54:24.368Z,247.88
2023-05-19T04:55:24.416Z,245.43
2023-05-19T04:56:24.451Z,242.43
2023-05-19T04:57:24.450Z,238.51
2023-05-19T04:58:24.515Z,236.70
2023-05-19T04:59:24.548Z,233.72
2023-05-19T05:00:24.628Z,230.09
2023-05-19T05:01:24.726Z,229.62
2023-05-19T05:02:24.707Z,228.47
2023-05-19T05:03:24.802Z,228.02
2023-05-19T05:04:24.794Z,227.06
2023-05-19T05:05:24.858Z,224.87
2023-05-19T05:06:24.909Z,223.49
2023-05-19T05:07:24.941Z,220.14
2023-05-19T05:08:25.040Z,220.68
2023-05-19T05:09:25.062Z,219.35
2023-05-19T05:10:25.138Z,217.20
2023-05-19T05:11:25.195Z,215.47
2023-05-19T05:12:25.227Z,212.62
2023-05-19T05:13:25.294Z,211.29
2023-05-19T05:14:25.366Z,211.32
2023-05-19T05:15:25.453Z,208.05
2023-05-19T05:16:25.572Z,206.99
2023-05-19T05:17:25.606Z,206.68
2023-05-19T05:18:25.631Z,204.56
2023-05-19T05:19:25.793Z,204.78
2023-05-19T05:20:25.761Z,200.95
2023-05-19T05:21:25.792Z,200.95
2023-05-19T05:22:25.822Z,198.62
2023-05-19T05:23:25.856Z,196.25
2023-05-19T05:24:25.915Z,194.20
2023-05-19T05:25:26.005Z,189.43
2023-05-19T05:26:26.058Z,189.27
2023-05-19T05:27:26.143Z,186.38
2023-05-19T05:28:26.207Z,184.26
2023-05-19T05:29:26.240Z,184.00
2023-05-19T05:30:26.292Z,181.62
2023-05-19T05:31:26.366Z,182.38
2023-05-19T05:32:26.551Z,179.70
2023-05-19T05:33:26.507Z,176.16
2023-05-19T05:34:26.517Z,176.49
2023-05-19T05:35:26.613Z,172.69
2023-05-19T05:36:26.640Z,170.66
2023-05-19T05:37:26.725Z,168.34
2023-05-19T05:38:26.788Z,167.73
2023-05-19T05:39:26.833Z,167.21
2023-05-19T05:40:26.908Z,166.22
2023-05-19T05:41:27.262Z,164.71
2023-05-19T05:42:29.531Z,162.32
2023-05-19T05:43:26.994Z,162.80
2023-05-19T05:44:26.984Z,163.83
2023-05-19T05:45:27.006Z,162.35
2023-05-19T05:46:27.072Z,160.53
2023-05-19T05:47:26.968Z,159.39
2023-05-19T05:48:26.982Z,160.96
2023-05-19T05:49:26.973Z,159.26
2023-05-19T05:50:26.928Z,159.45
2023-05-19T05:51:26.922Z,156.61
2023-05-19T05:52:26.925Z,156.54
2023-05-19T05:53:26.955Z,153.78
2023-05-19T05:54:26.905Z,156.28
2023-05-19T05:55:26.935Z,155.33
2023-05-19T05:56:26.921Z,156.25
2023-05-19T05:57:26.882Z,156.72
2023-05-19T05:58:26.897Z,153.55
2023-05-19T05:59:26.847Z,154.21
2023-05-19T06:00:26.871Z,155.70
2023-05-19T06:01:26.881Z,157.17
2023-05-19T06:02:26.905Z,156.01
2023-05-19T06:03:26.979Z,155.95
2023-05-19T06:04:26.831Z,155.92
2023-05-19T06:05:26.898Z,155.11
2023-05-19T06:06:26.820Z,155.71
2023-05-19T06:07:26.819Z,158.76
2023-05-19T06:08:26.804Z,158.65
2023-05-19T06:09:26.807Z,156.85
2023-05-19T06:10:26.824Z,160.65
2023-05-19T06:11:26.802Z,161.99
2023-05-19T06:12:26.795Z,164.29
2023-05-19T06:13:26.830Z,168.00
2023-05-19T06:14:26.780Z,170.08
2023-05-19T06:15:26.801Z,173.66
2023-05-19T06:16:26.794Z,175.43
2023-05-19T06:17:26.794Z,177.82
2023-05-19T06:18:26.767Z,180.70
2023-05-19T06:19:26.962Z,183.80
2023-05-19T06:20:26.734Z,186.67
2023-05-19T06:21:26.761Z,188.02
2023-05-19T06:22:26.712Z,192.67
2023-05-19T06:23:26.711Z,193.91
2023-05-19T06:24:26.700Z,196.04
2023-05-19T06:25:26.731Z,197.18
2023-05-19T06:26:26.771Z,197.51
2023-05-19T06:27:26.729Z,201.07
2023-05-19T06:28:26.715Z,200.84
2023-05-19T06:29:26.644Z,202.31
2023-05-19T06:30:26.689Z,201.35
2023-05-19T06:31:26.822Z,201.15
2023-05-19T06:32:26.693Z,197.26
2023-05-19T06:33:28.788Z,197.36
2023-05-19T06:34:26.742Z,196.83
2023-05-19T06:35:26.760Z,194.88
2023-05-19T06:36:26.806Z,193.07
2023-05-19T06:37:26.800Z,193.69
2023-05-19T06:38:26.818Z,192.61
2023-05-19T06:39:26.850Z,192.45
2023-05-19T06:40:26.846Z,189.16
2023-05-19T06:41:26.888Z,185.84
2023-05-19T06:42:26.924Z,188.91
2023-05-19T06:43:26.945Z,188.12
2023-05-19T06:44:26.966Z,185.94
2023-05-19T06:45:26.995Z,181.94
2023-05-19T06:46:27.299Z,184.37
2023-05-19T06:47:27.047Z,186.93
2023-05-19T06:48:27.082Z,188.81
2023-05-19T06:49:27.102Z,188.89
2023-05-19T06:50:27.092Z,186.83
2023-05-19T06:51:27.316Z,189.31
2023-05-19T06:52:27.169Z,188.34
2023-05-19T06:53:27.194Z,190.39
2023-05-19T06:54:27.221Z,191.98
2023-05-19T06:55:27.181Z,189.49
2023-05-19T06:56:27.307Z,190.11
2023-05-19T06:57:27.316Z,189.25
2023-05-19T06:58:27.412Z,189.99
2023-05-19T06:59:27.380Z,191.75
2023-05-19T07:00:27.418Z,188.52
2023-05-19T07:01:27.943Z,189.82
2023-05-19T07:02:27.469Z,186.93
2023-05-19T07:03:27.638Z,189.24
2023-05-19T07:04:27.461Z,188.63
2023-05-19T07:05:27.470Z,186.55
2023-05-19T07:06:27.566Z,186.52
2023-05-19T07:07:27.753Z,187.18
2023-05-19T07:08:27.685Z,187.70
2023-05-19T07:09:27.703Z,186.30
2023-05-19T07:10:27.691Z,184.44
2023-05-19T07:11:27.704Z,184.61
2023-05-19T07:12:27.729Z,184.83
2023-05-19T07:13:27.845Z,181.06
2023-05-19T07:14:27.780Z,178.91
2023-05-19T07:15:27.807Z,175.57
2023-05-19T07:16:28.280Z,172.61
2023-05-19T07:17:27.843Z,168.89
2023-05-19T07:18:27.870Z,168.74
2023-05-19T07:19:27.958Z,166.96
2023-05-19T07:20:27.873Z,165.14
2023-05-19T07:21:28.294Z,161.81
2023-05-19T07:22:27.953Z,158.20
2023-05-19T07:23:27.976Z,158.11
2023-05-19T07:24:27.974Z,154.74
2023-05-19T07:25:27.970Z,152.16
2023-05-19T07:26:28.283Z,150.10
2023-05-19T07:27:28.022Z,147.14
2023-05-19T07:28:28.140Z,146.23
2023-05-19T07:29:28.210Z,145.00
2023-05-19T07:30:28.253Z,141.31
2023-05-19T07:31:28.295Z,138.80
2023-05-19T07:32:28.262Z,135.86
2023-05-19T07:33:28.276Z,136.03
2023-05-19T07:34:28.284Z,134.78
2023-05-19T07:35:28.295Z,133.06
2023-05-19T07:36:28.279Z,130.01
2023-05-19T07:37:28.292Z,130.48
2023-05-19T07:38:28.300Z,130.15
2023-05-19T07:39:28.320Z,127.55
2023-05-19T07:40:28.398Z,125.53
2023-05-19T07:41:28.483Z,124.49
2023-05-19T07:42:28.514Z,123.09
2023-05-19T07:43:28.518Z,128.49
2023-05-19T07:44:28.513Z,123.35
2023-05-19T07:45:28.526Z,122.44
2023-05-19T07:46:28.941Z,122.64
2023-05-19T07:47:28.651Z,120.74
2023-05-19T07:48:28.552Z,115.85
2023-05-19T07:49:28.565Z,115.91
2023-05-19T07:50:28.603Z,114.48
2023-05-19T07:51:28.801Z,114.86
2023-05-19T07:52:28.671Z,114.69
2023-05-19T07:53:28.692Z,116.70
2023-05-19T07:54:28.842Z,115.14
2023-05-19T07:55:28.816Z,115.77
2023-05-19T07:56:28.723Z,117.12
2023-05-19T07:57:28.720Z,117.57
2023-05-19T07:58:28.745Z,117.61
2023-05-19T07:59:28.717Z,118.67
2023-05-19T08:00:28.735Z,120.51
2023-05-19T08:01:28.876Z,117.39
2023-05-19T08:02:29.037Z,120.32
2023-05-19T08:03:29.209Z,118.62
2023-05-19T08:04:29.001Z,119.33
2023-05-19T08:05:29.006Z,119.40
2023-05-19T08:06:28.984Z,121.56
2023-05-19T08:07:29.030Z,120.03
2023-05-19T08:08:29.030Z,117.97
2023-05-19T08:09:29.061Z,116.05
2023-05-19T08:10:29.089Z,118.18
2023-05-19T08:11:29.304Z,118.97
2023-05-19T08:12:29.134Z,117.43
2023-05-19T08:13:29.204Z,116.97
2023-05-19T08:14:29.242Z,117.86
2023-05-19T08:15:29.319Z,114.89
2023-05-19T08:16:29.313Z,115.66
2023-05-19T08:17:29.341Z,114.66
2023-05-19T08:18:29.288Z,113.81
2023-05-19T08:19:29.447Z,112.08
2023-05-19T08:20:29.374Z,113.76
2023-05-19T08:21:29.770Z,111.46
2023-05-19T08:22:29.468Z,109.98
2023-05-19T08:23:29.590Z,110.58
2023-05-19T08:24:29.548Z,109.06
2023-05-19T08:25:29.557Z,106.98
2023-05-19T08:26:29.552Z,105.76
2023-05-19T08:27:29.621Z,104.93
2023-05-19T08:28:29.568Z,103.32
2023-05-19T08:29:29.646Z,104.31
2023-05-19T08:30:29.706Z,103.66
2023-05-19T08:31:29.799Z,103.97
2023-05-19T08:32:29.784Z,103.35
2023-05-19T08:33:29.756Z,102.42
2023-05-19T08:34:29.773Z,101.32
2023-05-19T08:35:29.741Z,101.63
2023-05-19T08:36:29.794Z,103.47
2023-05-19T08:37:30.693Z,102.25
2023-05-19T08:38:29.831Z,101.09
2023-05-19T08:39:29.807Z,101.57
2023-05-19T08:40:29.922Z,103.47
2023-05-19T08:41:29.910Z,103.94
2023-05-19T08:42:29.958Z,105.10
2023-05-19T08:43:29.989Z,105.89
2023-05-19T08:44:29.986Z,106.96
2023-05-19T08:45:30.205Z,104.68
2023-05-19T08:46:30.033Z,102.43
2023-05-19T08:47:30.096Z,102.23
2023-05-19T08:48:30.074Z,102.23
2023-05-19T08:49:30.042Z,100.02
2023-05-19T08:50:30.220Z,102.01
2023-05-19T08:51:30.143Z,99.81
2023-05-19T08:52:30.123Z,97.61
2023-05-19T08:53:34.047Z,98.09
2023-05-19T08:54:30.165Z,98.17
2023-05-19T08:55:30.366Z,97.92
2023-05-19T08:56:30.167Z,97.41
2023-05-19T08:57:30.145Z,96.36
2023-05-19T08:58:30.137Z,95.00
2023-05-19T08:59:30.145Z,96.89
2023-05-19T09:00:30.154Z,93.33
2023-05-19T09:01:30.165Z,92.64
2023-05-19T09:02:30.170Z,90.67
2023-05-19T09:03:30.165Z,90.93
2023-05-19T09:04:30.483Z,89.76
2023-05-19T09:05:30.157Z,91.61
2023-05-19T09:06:30.103Z,93.01
2023-05-19T09:07:30.071Z,90.85
2023-05-19T09:08:30.061Z,94.56
2023-05-19T09:09:30.069Z,94.18
2023-05-19T09:10:30.058Z,95.53
2023-05-19T09:11:30.050Z,94.29
2023-05-19T09:12:30.315Z,94.96
2023-05-19T09:13:30.067Z,93.55
2023-05-19T09:14:30.014Z,93.49
2023-05-19T09:15:30.096Z,93.83
2023-05-19T09:16:30.467Z,96.35
2023-05-19T09:17:30.330Z,96.56
2023-05-19T09:18:30.022Z,96.11
2023-05-19T09:19:30.227Z,94.82
2023-05-19T09:20:29.985Z,97.23
2023-05-19T09:21:30.002Z,96.94
2023-05-19T09:22:30.000Z,98.18
2023-05-19T09:23:29.955Z,97.25
2023-05-19T09:24:29.932Z,100.71
2023-05-19T09:25:29.957Z,99.07
2023-05-19T09:26:29.974Z,100.47
2023-05-19T09:27:29.934Z,102.03
2023-05-19T09:28:29.943Z,97.43
2023-05-19T09:29:29.938Z,98.17
2023-05-19T09:30:29.947Z,100.08
2023-05-19T09:31:29.935Z,99.45
2023-05-19T09:32:30.005Z,99.65
2023-05-19T09:33:29.903Z,99.68
2023-05-19T09:34:29.885Z,94.49
2023-05-19T09:35:29.888Z,92.38
2023-05-19T09:36:29.895Z,92.42
2023-05-19T09:37:30.300Z,90.37
2023-05-19T09:38:29.866Z,88.40
2023-05-19T09:39:29.850Z,88.39
2023-05-19T09:40:29.855Z,87.60
2023-05-19T09:41:29.880Z,88.16
2023-05-19T09:42:29.891Z,88.79
2023-05-19T09:43:29.868Z,85.35
2023-05-19T09:44:30.027Z,83.04
2023-05-19T09:45:29.934Z,82.62
2023-05-19T09:46:29.988Z,82.43
2023-05-19T09:47:30.029Z,82.39
2023-05-19T09:48:30.034Z,82.43
2023-05-19T09:49:30.058Z,83.33
2023-05-19T09:50:30.061Z,80.61
2023-05-19T09:51:30.100Z,79.47
2023-05-19T09:52:30.104Z,76.81
2023-05-19T09:53:30.165Z,74.12
2023-05-19T09:54:30.232Z,77.91
2023-05-19T09:55:30.676Z,77.38
2023-05-19T09:56:30.339Z,81.74
2023-05-19T09:57:30.400Z,77.65
2023-05-19T09:58:30.413Z,76.54
2023-05-19T09:59:32.301Z,73.00
2023-05-19T10:00:30.512Z,75.76
2023-05-19T10:01:30.480Z,73.56
2023-05-19T10:02:30.889Z,81.42
2023-05-19T10:03:30.458Z,81.38
2023-05-19T10:04:30.500Z,86.46
2023-05-19T10:05:30.438Z,87.54
2023-05-19T10:06:30.405Z,89.87
2023-05-19T10:07:30.840Z,87.37
2023-05-19T10:08:30.496Z,85.21
2023-05-19T10:09:30.403Z,84.24
2023-05-19T10:10:30.387Z,91.90
2023-05-19T10:11:30.386Z,88.96
2023-05-19T10:12:30.398Z,87.01
2023-05-19T10:13:30.361Z,77.82
2023-05-19T10:14:30.370Z,76.93
2023-05-19T10:15:30.558Z,78.42
2023-05-19T10:16:30.364Z,85.41
2023-05-19T10:17:30.868Z,83.06
2023-05-19T10:18:30.339Z,80.82
2023-05-19T10:19:30.384Z,84.60
2023-05-19T10:20:30.496Z,76.68
2023-05-19T10:21:30.278Z,74.10
2023-05-19T10:22:30.358Z,76.19
2023-05-19T10:23:30.328Z,71.97
2023-05-19T10:24:30.257Z,71.87
2023-05-19T10:25:30.377Z,73.60
2023-05-19T10:26:30.279Z,69.72
2023-05-19T10:27:30.241Z,70.81
2023-05-19T10:28:30.223Z,70.38
2023-05-19T10:29:30.277Z,72.62
2023-05-19T10:30:30.242Z,70.46
2023-05-19T10:31:30.264Z,66.44
2023-05-19T10:32:30.391Z,69.55
2023-05-19T10:33:30.216Z,75.25
2023-05-19T10:34:30.198Z,73.01
2023-05-19T10:35:31.445Z,72.49
2023-05-19T10:36:30.208Z,75.09
2023-05-19T10:37:30.180Z,75.03
2023-05-19T10:38:30.180Z,74.74
2023-05-19T10:39:30.194Z,73.90
2023-05-19T10:40:30.205Z,72.79
2023-05-19T10:41:30.250Z,75.09
2023-05-19T10:42:30.344Z,73.38
2023-05-19T10:43:30.365Z,76.19
2023-05-19T10:44:30.401Z,74.88
2023-05-19T10:45:30.486Z,75.76
2023-05-19T10:46:30.543Z,78.22
2023-05-19T10:47:30.595Z,80.31
2023-05-19T10:48:30.643Z,80.81
2023-05-19T10:49:30.767Z,82.10
2023-05-19T10:50:30.794Z,76.85
2023-05-19T10:51:30.832Z,80.94
2023-05-19T10:52:30.964Z,83.90
2023-05-19T10:53:30.936Z,85.81
2023-05-19T10:54:31.003Z,85.17
2023-05-19T10:55:31.174Z,85.03
2023-05-19T10:56:31.118Z,81.75
2023-05-19T10:57:31.360Z,83.00
2023-05-19T10:58:31.259Z,83.41
2023-05-19T10:59:31.350Z,86.71
2023-05-19T11:00:31.384Z,88.53
2023-05-19T11:01:31.506Z,86.24
2023-05-19T11:02:31.567Z,86.16
2023-05-19T11:03:31.594Z,88.76
2023-05-19T11:04:31.761Z,91.09
2023-05-19T11:05:31.959Z,89.93
2023-05-19T11:06:31.765Z,91.07
2023-05-19T11:07:31.842Z,92.49
2023-05-19T11:08:31.909Z,92.25
2023-05-19T11:09:40.082Z,90.30
2023-05-19T11:10:32.968Z,90.44
2023-05-19T11:11:33.198Z,90.60
2023-05-19T11:12:31.941Z,91.19
2023-05-19T11:13:31.950Z,88.81
2023-05-19T11:14:31.938Z,87.33
2023-05-19T11:15:32.041Z,86.33
2023-05-19T11:16:31.949Z,87.04
2023-05-19T11:17:33.166Z,91.92
2023-05-19T11:18:31.901Z,89.60
2023-05-19T11:19:31.909Z,89.49
2023-05-19T11:20:31.950Z,88.81
2023-05-19T11:21:32.027Z,91.41
2023-05-19T11:22:32.102Z,89.86
2023-05-19T11:23:33.507Z,88.32
2023-05-19T11:24:32.120Z,90.11
2023-05-19T11:25:32.306Z,93.40
2023-05-19T11:26:32.099Z,92.27
2023-05-19T11:27:32.129Z,89.61
2023-05-19T11:28:32.121Z,91.43
2023-05-19T11:29:32.965Z,91.25
2023-05-19T11:30:32.288Z,91.44
2023-05-19T11:31:32.403Z,91.38
2023-05-19T11:32:32.486Z,91.32
2023-05-19T11:33:32.461Z,88.95
2023-05-19T11:34:32.538Z,90.64
2023-05-19T11:35:33.993Z,89.39
2023-05-19T11:36:32.590Z,93.91
2023-05-19T11:37:32.857Z,92.25
2023-05-19T11:38:32.567Z,94.91
2023-05-19T11:39:32.565Z,90.12
2023-05-19T11:40:32.577Z,89.74
2023-05-19T11:41:32.566Z,89.45
2023-05-19T11:42:32.568Z,87.93
2023-05-19T11:43:32.523Z,91.19
2023-05-19T11:44:32.540Z,89.21
2023-05-19T11:45:32.781Z,90.09
2023-05-19T11:46:32.530Z,88.80
2023-05-19T11:47:41.992Z,86.42
2023-05-19T11:48:33.516Z,86.68
2023-05-19T11:49:32.493Z,86.96
2023-05-19T11:50:32.475Z,87.26
2023-05-19T11:51:32.535Z,84.30
2023-05-19T11:52:32.495Z,84.68
2023-05-19T11:53:34.020Z,83.35
2023-05-19T11:54:32.478Z,87.18
2023-05-19T11:55:32.453Z,84.93
2023-05-19T11:56:32.453Z,84.16
2023-05-19T11:57:32.449Z,80.21
2023-05-19T11:58:32.432Z,80.90
2023-05-19T11:59:34.190Z,80.49
2023-05-19T12:00:32.437Z,80.50
2023-05-19T12:01:32.397Z,80.57
2023-05-19T12:02:32.469Z,75.08
2023-05-19T12:03:32.522Z,72.43
2023-05-19T12:04:32.437Z,70.93
2023-05-19T12:05:34.991Z,74.91
2023-05-19T12:06:33.398Z,74.96
2023-05-19T12:07:32.392Z,75.07
2023-05-19T12:08:32.366Z,75.37
2023-05-19T12:09:32.413Z,74.19
2023-05-19T12:10:32.371Z,72.33
2023-05-19T12:11:32.368Z,68.37
2023-05-19T12:12:32.348Z,69.66
2023-05-19T12:13:32.346Z,69.58
2023-05-19T12:14:32.324Z,71.58
2023-05-19T12:15:32.613Z,68.06
2023-05-19T12:16:33.630Z,67.46
2023-05-19T12:17:32.466Z,65.48
2023-05-19T12:18:32.532Z,66.59
2023-05-19T12:19:32.560Z,59.97
2023-05-19T12:20:32.716Z,58.98
2023-05-19T12:21:33.799Z,59.21
2023-05-19T12:22:32.700Z,61.99
2023-05-19T12:23:32.753Z,55.88
2023-05-19T12:24:32.787Z,54.31
2023-05-19T12:25:33.180Z,50.83
2023-05-19T12:26:32.863Z,46.77
2023-05-19T12:27:34.762Z,44.64
2023-05-19T12:28:32.985Z,44.92
2023-05-19T12:29:33.007Z,42.92
2023-05-19T12:30:33.972Z,40.78
2023-05-19T12:31:33.089Z,43.41
2023-05-19T12:32:33.194Z,42.16
2023-05-19T12:33:33.619Z,41.10
2023-05-19T12:34:33.297Z,39.70
2023-05-19T12:35:33.478Z,39.43